sensor_id;sensor_type;location;lat;lon;timestamp;P1;durP1;ratioP1;P2;durP2;ratioP2
12511;SDS011;6321;53.798;10.382;2022-08-19T00:00:20;25.20;;;21.43;;
12511;SDS011;6321;53.798;10.382;2022-08-19T00:02:46;26.77;;;21.93;;
12511;SDS011;6321;53.798;10.382;2022-08-19T00:05:13;25.50;;;22.90;;
12511;SDS011;6321;53.798;10.382;2022-08-19T00:07:40;25.60;;;22.90;;
12511;SDS011;6321;53.798;10.382;2022-08-19T00:10:08;24.77;;;22.03;;
12511;SDS011;6321;53.798;10.382;2022-08-19T00:12:36;24.87;;;22.23;;
12511;SDS011;6321;53.798;10.382;2022-08-19T00:15:04;25.80;;;23.10;;
12511;SDS011;6321;53.798;10.382;2022-08-19T00:17:31;23.20;;;20.90;;
12511;SDS011;6321;53.798;10.382;2022-08-19T00:19:57;25.43;;;22.70;;
12511;SDS011;6321;53.798;10.382;2022-08-19T00:22:23;25.90;;;22.40;;
12511;SDS011;6321;53.798;10.382;2022-08-19T00:24:49;26.77;;;22.90;;
12511;SDS011;6321;53.798;10.382;2022-08-19T00:27:14;30.43;;;23.80;;
12511;SDS011;6321;53.798;10.382;2022-08-19T00:29:41;25.23;;;22.47;;
12511;SDS011;6321;53.798;10.382;2022-08-19T00:32:07;29.10;;;23.93;;
12511;SDS011;6321;53.798;10.382;2022-08-19T00:34:33;29.30;;;25.40;;
12511;SDS011;6321;53.798;10.382;2022-08-19T00:37:00;28.87;;;25.50;;
12511;SDS011;6321;53.798;10.382;2022-08-19T00:39:25;29.30;;;24.87;;
12511;SDS011;6321;53.798;10.382;2022-08-19T00:41:51;33.23;;;26.00;;
12511;SDS011;6321;53.798;10.382;2022-08-19T00:44:20;29.20;;;26.03;;
12511;SDS011;6321;53.798;10.382;2022-08-19T00:46:49;27.90;;;24.70;;
12511;SDS011;6321;53.798;10.382;2022-08-19T00:49:31;30.37;;;25.33;;
12511;SDS011;6321;53.798;10.382;2022-08-19T00:52:03;35.87;;;26.03;;
12511;SDS011;6321;53.798;10.382;2022-08-19T00:54:33;38.07;;;28.50;;
12511;SDS011;6321;53.798;10.382;2022-08-19T00:57:02;36.60;;;27.00;;
12511;SDS011;6321;53.798;10.382;2022-08-19T00:59:31;39.23;;;29.23;;
12511;SDS011;6321;53.798;10.382;2022-08-19T01:01:59;36.90;;;29.57;;
12511;SDS011;6321;53.798;10.382;2022-08-19T01:04:25;44.00;;;30.83;;
12511;SDS011;6321;53.798;10.382;2022-08-19T01:06:51;40.20;;;29.57;;
12511;SDS011;6321;53.798;10.382;2022-08-19T01:09:16;40.50;;;30.20;;
12511;SDS011;6321;53.798;10.382;2022-08-19T01:11:42;41.17;;;30.83;;
12511;SDS011;6321;53.798;10.382;2022-08-19T01:14:10;45.20;;;32.23;;
12511;SDS011;6321;53.798;10.382;2022-08-19T01:16:37;40.70;;;30.70;;
12511;SDS011;6321;53.798;10.382;2022-08-19T01:19:27;46.63;;;31.27;;
12511;SDS011;6321;53.798;10.382;2022-08-19T01:21:55;42.33;;;31.43;;
12511;SDS011;6321;53.798;10.382;2022-08-19T01:24:30;42.50;;;31.07;;
12511;SDS011;6321;53.798;10.382;2022-08-19T01:26:56;39.57;;;30.63;;
12511;SDS011;6321;53.798;10.382;2022-08-19T01:29:23;47.67;;;31.97;;
12511;SDS011;6321;53.798;10.382;2022-08-19T01:31:48;42.33;;;31.00;;
12511;SDS011;6321;53.798;10.382;2022-08-19T01:34:17;44.57;;;31.07;;
12511;SDS011;6321;53.798;10.382;2022-08-19T01:36:44;46.43;;;29.77;;
12511;SDS011;6321;53.798;10.382;2022-08-19T01:39:13;41.63;;;31.87;;
12511;SDS011;6321;53.798;10.382;2022-08-19T01:41:44;39.37;;;30.50;;
12511;SDS011;6321;53.798;10.382;2022-08-19T01:44:10;42.07;;;30.37;;
12511;SDS011;6321;53.798;10.382;2022-08-19T01:46:36;42.33;;;31.23;;
12511;SDS011;6321;53.798;10.382;2022-08-19T01:49:03;43.13;;;29.70;;
12511;SDS011;6321;53.798;10.382;2022-08-19T01:51:30;38.90;;;29.37;;
12511;SDS011;6321;53.798;10.382;2022-08-19T01:53:57;38.53;;;29.67;;
12511;SDS011;6321;53.798;10.382;2022-08-19T01:56:24;41.53;;;30.47;;
12511;SDS011;6321;53.798;10.382;2022-08-19T01:58:54;41.97;;;30.80;;
12511;SDS011;6321;53.798;10.382;2022-08-19T02:01:25;42.43;;;30.93;;
12511;SDS011;6321;53.798;10.382;2022-08-19T02:03:51;43.00;;;30.50;;
12511;SDS011;6321;53.798;10.382;2022-08-19T02:06:18;40.57;;;29.70;;
12511;SDS011;6321;53.798;10.382;2022-08-19T02:08:44;42.97;;;30.20;;
12511;SDS011;6321;53.798;10.382;2022-08-19T02:11:17;45.80;;;30.37;;
12511;SDS011;6321;53.798;10.382;2022-08-19T02:13:45;42.33;;;30.50;;
12511;SDS011;6321;53.798;10.382;2022-08-19T02:16:11;44.93;;;29.83;;
12511;SDS011;6321;53.798;10.382;2022-08-19T02:18:37;45.03;;;30.10;;
12511;SDS011;6321;53.798;10.382;2022-08-19T02:21:03;52.57;;;30.60;;
12511;SDS011;6321;53.798;10.382;2022-08-19T02:23:29;38.73;;;27.17;;
12511;SDS011;6321;53.798;10.382;2022-08-19T02:25:56;47.73;;;29.57;;
12511;SDS011;6321;53.798;10.382;2022-08-19T02:28:22;40.10;;;28.60;;
12511;SDS011;6321;53.798;10.382;2022-08-19T02:30:48;41.60;;;29.13;;
12511;SDS011;6321;53.798;10.382;2022-08-19T02:33:14;42.47;;;27.60;;
12511;SDS011;6321;53.798;10.382;2022-08-19T02:35:42;41.57;;;27.47;;
12511;SDS011;6321;53.798;10.382;2022-08-19T02:38:11;37.97;;;26.60;;
12511;SDS011;6321;53.798;10.382;2022-08-19T02:41:00;40.83;;;26.57;;
12511;SDS011;6321;53.798;10.382;2022-08-19T02:43:29;38.53;;;26.50;;
12511;SDS011;6321;53.798;10.382;2022-08-19T02:45:56;41.60;;;28.00;;
12511;SDS011;6321;53.798;10.382;2022-08-19T02:48:23;45.93;;;26.97;;
12511;SDS011;6321;53.798;10.382;2022-08-19T02:50:50;38.53;;;26.30;;
12511;SDS011;6321;53.798;10.382;2022-08-19T02:53:23;47.93;;;28.37;;
12511;SDS011;6321;53.798;10.382;2022-08-19T02:55:51;48.97;;;26.80;;
12511;SDS011;6321;53.798;10.382;2022-08-19T02:58:20;36.93;;;26.57;;
12511;SDS011;6321;53.798;10.382;2022-08-19T03:00:48;41.83;;;25.90;;
12511;SDS011;6321;53.798;10.382;2022-08-19T03:03:15;39.47;;;26.97;;
12511;SDS011;6321;53.798;10.382;2022-08-19T03:05:42;43.30;;;27.57;;
12511;SDS011;6321;53.798;10.382;2022-08-19T03:08:09;37.57;;;25.67;;
12511;SDS011;6321;53.798;10.382;2022-08-19T03:10:46;42.33;;;25.90;;
12511;SDS011;6321;53.798;10.382;2022-08-19T03:13:14;39.70;;;25.67;;
12511;SDS011;6321;53.798;10.382;2022-08-19T03:15:46;44.70;;;26.70;;
12511;SDS011;6321;53.798;10.382;2022-08-19T03:18:13;40.67;;;25.43;;
12511;SDS011;6321;53.798;10.382;2022-08-19T03:20:43;38.80;;;25.63;;
12511;SDS011;6321;53.798;10.382;2022-08-19T03:23:12;36.20;;;25.70;;
12511;SDS011;6321;53.798;10.382;2022-08-19T03:25:39;44.70;;;26.77;;
12511;SDS011;6321;53.798;10.382;2022-08-19T03:28:07;40.40;;;25.93;;
12511;SDS011;6321;53.798;10.382;2022-08-19T03:30:33;39.20;;;26.10;;
12511;SDS011;6321;53.798;10.382;2022-08-19T03:33:00;40.00;;;26.00;;
12511;SDS011;6321;53.798;10.382;2022-08-19T03:35:26;37.13;;;25.90;;
12511;SDS011;6321;53.798;10.382;2022-08-19T03:37:52;34.57;;;25.37;;
12511;SDS011;6321;53.798;10.382;2022-08-19T03:40:18;42.40;;;25.30;;
12511;SDS011;6321;53.798;10.382;2022-08-19T03:42:44;37.07;;;25.60;;
12511;SDS011;6321;53.798;10.382;2022-08-19T03:45:11;41.83;;;25.97;;
12511;SDS011;6321;53.798;10.382;2022-08-19T03:47:37;35.03;;;25.30;;
12511;SDS011;6321;53.798;10.382;2022-08-19T03:50:03;36.50;;;24.87;;
12511;SDS011;6321;53.798;10.382;2022-08-19T03:52:30;37.90;;;24.97;;
12511;SDS011;6321;53.798;10.382;2022-08-19T03:54:55;36.77;;;25.00;;
12511;SDS011;6321;53.798;10.382;2022-08-19T03:57:21;41.97;;;25.90;;
12511;SDS011;6321;53.798;10.382;2022-08-19T03:59:47;48.20;;;27.20;;
12511;SDS011;6321;53.798;10.382;2022-08-19T04:02:14;32.83;;;25.10;;
12511;SDS011;6321;53.798;10.382;2022-08-19T04:04:40;39.87;;;25.70;;
12511;SDS011;6321;53.798;10.382;2022-08-19T04:07:09;40.13;;;24.60;;
12511;SDS011;6321;53.798;10.382;2022-08-19T04:09:36;40.67;;;25.53;;
12511;SDS011;6321;53.798;10.382;2022-08-19T04:12:02;34.70;;;24.03;;
12511;SDS011;6321;53.798;10.382;2022-08-19T04:14:30;36.73;;;25.70;;
12511;SDS011;6321;53.798;10.382;2022-08-19T04:16:57;37.50;;;24.33;;
12511;SDS011;6321;53.798;10.382;2022-08-19T04:19:24;38.07;;;24.67;;
12511;SDS011;6321;53.798;10.382;2022-08-19T04:21:53;34.97;;;24.07;;
12511;SDS011;6321;53.798;10.382;2022-08-19T04:24:19;38.70;;;25.07;;
12511;SDS011;6321;53.798;10.382;2022-08-19T04:26:47;35.10;;;24.87;;
12511;SDS011;6321;53.798;10.382;2022-08-19T04:29:15;38.50;;;26.20;;
12511;SDS011;6321;53.798;10.382;2022-08-19T04:31:44;30.63;;;24.70;;
12511;SDS011;6321;53.798;10.382;2022-08-19T04:34:11;35.07;;;26.23;;
12511;SDS011;6321;53.798;10.382;2022-08-19T04:36:40;29.60;;;24.53;;
12511;SDS011;6321;53.798;10.382;2022-08-19T04:39:08;28.83;;;24.83;;
12511;SDS011;6321;53.798;10.382;2022-08-19T04:41:37;32.50;;;25.73;;
12511;SDS011;6321;53.798;10.382;2022-08-19T04:44:21;35.50;;;25.03;;
12511;SDS011;6321;53.798;10.382;2022-08-19T04:46:49;36.50;;;24.63;;
12511;SDS011;6321;53.798;10.382;2022-08-19T04:49:16;35.70;;;25.27;;
12511;SDS011;6321;53.798;10.382;2022-08-19T04:51:44;31.57;;;25.80;;
12511;SDS011;6321;53.798;10.382;2022-08-19T04:54:12;32.97;;;25.43;;
12511;SDS011;6321;53.798;10.382;2022-08-19T04:56:38;38.73;;;27.30;;
12511;SDS011;6321;53.798;10.382;2022-08-19T04:59:05;30.03;;;25.80;;
12511;SDS011;6321;53.798;10.382;2022-08-19T05:01:32;35.73;;;23.97;;
12511;SDS011;6321;53.798;10.382;2022-08-19T05:04:02;31.47;;;25.23;;
12511;SDS011;6321;53.798;10.382;2022-08-19T05:06:30;35.27;;;26.23;;
12511;SDS011;6321;53.798;10.382;2022-08-19T05:08:59;36.40;;;25.97;;
12511;SDS011;6321;53.798;10.382;2022-08-19T05:11:30;45.83;;;29.13;;
12511;SDS011;6321;53.798;10.382;2022-08-19T05:13:57;43.10;;;30.53;;
12511;SDS011;6321;53.798;10.382;2022-08-19T05:16:24;43.30;;;29.40;;
12511;SDS011;6321;53.798;10.382;2022-08-19T05:18:51;43.43;;;28.33;;
12511;SDS011;6321;53.798;10.382;2022-08-19T05:21:35;42.70;;;30.47;;
12511;SDS011;6321;53.798;10.382;2022-08-19T05:24:21;41.33;;;29.13;;
12511;SDS011;6321;53.798;10.382;2022-08-19T05:26:49;45.17;;;31.83;;
12511;SDS011;6321;53.798;10.382;2022-08-19T05:29:18;41.33;;;31.03;;
12511;SDS011;6321;53.798;10.382;2022-08-19T05:31:45;42.47;;;30.13;;
12511;SDS011;6321;53.798;10.382;2022-08-19T05:34:14;47.03;;;31.83;;
12511;SDS011;6321;53.798;10.382;2022-08-19T05:36:42;51.57;;;31.07;;
12511;SDS011;6321;53.798;10.382;2022-08-19T05:39:10;50.17;;;31.73;;
12511;SDS011;6321;53.798;10.382;2022-08-19T05:41:51;41.87;;;28.27;;
12511;SDS011;6321;53.798;10.382;2022-08-19T05:44:19;40.73;;;29.10;;
12511;SDS011;6321;53.798;10.382;2022-08-19T05:46:46;38.30;;;28.53;;
12511;SDS011;6321;53.798;10.382;2022-08-19T05:49:13;47.60;;;29.03;;
12511;SDS011;6321;53.798;10.382;2022-08-19T05:51:41;41.80;;;29.47;;
12511;SDS011;6321;53.798;10.382;2022-08-19T05:54:08;43.73;;;29.50;;
12511;SDS011;6321;53.798;10.382;2022-08-19T05:56:36;40.03;;;30.03;;
12511;SDS011;6321;53.798;10.382;2022-08-19T05:59:03;44.53;;;29.50;;
12511;SDS011;6321;53.798;10.382;2022-08-19T06:01:34;44.03;;;29.60;;
12511;SDS011;6321;53.798;10.382;2022-08-19T06:04:04;44.63;;;30.73;;
12511;SDS011;6321;53.798;10.382;2022-08-19T06:06:31;44.13;;;30.50;;
12511;SDS011;6321;53.798;10.382;2022-08-19T06:09:03;45.20;;;30.27;;
12511;SDS011;6321;53.798;10.382;2022-08-19T06:11:35;48.03;;;30.57;;
12511;SDS011;6321;53.798;10.382;2022-08-19T06:14:09;45.80;;;30.57;;
12511;SDS011;6321;53.798;10.382;2022-08-19T06:16:39;39.83;;;30.27;;
12511;SDS011;6321;53.798;10.382;2022-08-19T06:19:07;46.53;;;30.87;;
12511;SDS011;6321;53.798;10.382;2022-08-19T06:21:35;46.77;;;30.40;;
12511;SDS011;6321;53.798;10.382;2022-08-19T06:24:03;45.83;;;30.40;;
12511;SDS011;6321;53.798;10.382;2022-08-19T06:26:31;41.90;;;29.10;;
12511;SDS011;6321;53.798;10.382;2022-08-19T06:28:57;40.87;;;27.70;;
12511;SDS011;6321;53.798;10.382;2022-08-19T06:31:26;45.37;;;29.67;;
12511;SDS011;6321;53.798;10.382;2022-08-19T06:33:52;36.40;;;26.67;;
12511;SDS011;6321;53.798;10.382;2022-08-19T06:36:22;43.83;;;29.63;;
12511;SDS011;6321;53.798;10.382;2022-08-19T06:38:53;37.93;;;28.43;;
12511;SDS011;6321;53.798;10.382;2022-08-19T06:41:19;43.33;;;28.20;;
12511;SDS011;6321;53.798;10.382;2022-08-19T06:43:45;40.57;;;29.80;;
12511;SDS011;6321;53.798;10.382;2022-08-19T06:46:12;49.73;;;30.50;;
12511;SDS011;6321;53.798;10.382;2022-08-19T06:48:41;44.43;;;27.97;;
12511;SDS011;6321;53.798;10.382;2022-08-19T06:51:07;46.63;;;28.33;;
12511;SDS011;6321;53.798;10.382;2022-08-19T06:53:34;41.00;;;27.40;;
12511;SDS011;6321;53.798;10.382;2022-08-19T06:56:00;40.87;;;28.60;;
12511;SDS011;6321;53.798;10.382;2022-08-19T06:58:30;43.40;;;28.93;;
12511;SDS011;6321;53.798;10.382;2022-08-19T07:01:02;37.73;;;27.33;;
12511;SDS011;6321;53.798;10.382;2022-08-19T07:03:30;41.50;;;27.97;;
12511;SDS011;6321;53.798;10.382;2022-08-19T07:06:02;43.43;;;28.53;;
12511;SDS011;6321;53.798;10.382;2022-08-19T07:08:35;48.03;;;31.30;;
12511;SDS011;6321;53.798;10.382;2022-08-19T07:11:05;48.90;;;31.03;;
12511;SDS011;6321;53.798;10.382;2022-08-19T07:13:35;46.17;;;30.87;;
12511;SDS011;6321;53.798;10.382;2022-08-19T07:18:32;52.70;;;33.73;;
12511;SDS011;6321;53.798;10.382;2022-08-19T07:21:02;50.83;;;33.83;;
12511;SDS011;6321;53.798;10.382;2022-08-19T07:23:35;53.97;;;33.70;;
12511;SDS011;6321;53.798;10.382;2022-08-19T07:26:05;54.73;;;32.87;;
12511;SDS011;6321;53.798;10.382;2022-08-19T07:28:32;61.33;;;34.57;;
12511;SDS011;6321;53.798;10.382;2022-08-19T07:30:59;58.80;;;33.50;;
12511;SDS011;6321;53.798;10.382;2022-08-19T07:33:27;55.00;;;32.40;;
12511;SDS011;6321;53.798;10.382;2022-08-19T07:35:55;55.17;;;36.10;;
12511;SDS011;6321;53.798;10.382;2022-08-19T07:38:21;58.33;;;33.47;;
12511;SDS011;6321;53.798;10.382;2022-08-19T07:40:46;48.17;;;32.23;;
12511;SDS011;6321;53.798;10.382;2022-08-19T07:43:12;51.67;;;32.17;;
12511;SDS011;6321;53.798;10.382;2022-08-19T07:45:40;60.37;;;35.40;;
12511;SDS011;6321;53.798;10.382;2022-08-19T07:48:07;53.60;;;31.77;;
12511;SDS011;6321;53.798;10.382;2022-08-19T07:50:33;49.57;;;32.73;;
12511;SDS011;6321;53.798;10.382;2022-08-19T07:52:58;60.97;;;32.10;;
12511;SDS011;6321;53.798;10.382;2022-08-19T07:55:24;57.73;;;32.73;;
12511;SDS011;6321;53.798;10.382;2022-08-19T07:57:51;51.17;;;32.97;;
12511;SDS011;6321;53.798;10.382;2022-08-19T08:00:18;55.87;;;33.23;;
12511;SDS011;6321;53.798;10.382;2022-08-19T08:02:44;46.73;;;31.67;;
12511;SDS011;6321;53.798;10.382;2022-08-19T08:05:10;50.97;;;32.30;;
12511;SDS011;6321;53.798;10.382;2022-08-19T08:07:56;49.97;;;31.63;;
12511;SDS011;6321;53.798;10.382;2022-08-19T08:10:40;50.10;;;32.87;;
12511;SDS011;6321;53.798;10.382;2022-08-19T08:13:06;50.47;;;32.70;;
12511;SDS011;6321;53.798;10.382;2022-08-19T08:15:32;49.77;;;31.93;;
12511;SDS011;6321;53.798;10.382;2022-08-19T08:17:58;52.87;;;34.00;;
12511;SDS011;6321;53.798;10.382;2022-08-19T08:20:24;51.60;;;32.80;;
12511;SDS011;6321;53.798;10.382;2022-08-19T08:22:50;53.40;;;32.03;;
12511;SDS011;6321;53.798;10.382;2022-08-19T08:25:35;49.17;;;32.73;;
12511;SDS011;6321;53.798;10.382;2022-08-19T08:28:02;46.97;;;31.77;;
12511;SDS011;6321;53.798;10.382;2022-08-19T08:30:29;49.00;;;32.03;;
12511;SDS011;6321;53.798;10.382;2022-08-19T08:32:57;49.97;;;31.83;;
12511;SDS011;6321;53.798;10.382;2022-08-19T08:35:24;52.83;;;31.93;;
12511;SDS011;6321;53.798;10.382;2022-08-19T08:37:51;47.30;;;30.23;;
12511;SDS011;6321;53.798;10.382;2022-08-19T08:42:58;49.83;;;32.17;;
12511;SDS011;6321;53.798;10.382;2022-08-19T08:45:32;44.93;;;31.27;;
12511;SDS011;6321;53.798;10.382;2022-08-19T08:48:01;52.30;;;32.90;;
12511;SDS011;6321;53.798;10.382;2022-08-19T08:50:36;46.77;;;32.43;;
12511;SDS011;6321;53.798;10.382;2022-08-19T08:53:06;46.67;;;31.40;;
12511;SDS011;6321;53.798;10.382;2022-08-19T08:55:33;46.57;;;30.50;;
12511;SDS011;6321;53.798;10.382;2022-08-19T08:58:04;47.57;;;32.10;;
12511;SDS011;6321;53.798;10.382;2022-08-19T09:00:40;48.13;;;31.40;;
12511;SDS011;6321;53.798;10.382;2022-08-19T09:03:24;49.30;;;31.97;;
12511;SDS011;6321;53.798;10.382;2022-08-19T09:11:06;46.67;;;30.77;;
12511;SDS011;6321;53.798;10.382;2022-08-19T09:16:28;50.23;;;32.63;;
12511;SDS011;6321;53.798;10.382;2022-08-19T09:18:57;49.77;;;32.37;;
12511;SDS011;6321;53.798;10.382;2022-08-19T09:21:30;54.93;;;33.43;;
12511;SDS011;6321;53.798;10.382;2022-08-19T09:23:56;51.80;;;32.63;;
12511;SDS011;6321;53.798;10.382;2022-08-19T09:26:23;47.17;;;31.67;;
12511;SDS011;6321;53.798;10.382;2022-08-19T09:28:51;52.77;;;32.13;;
12511;SDS011;6321;53.798;10.382;2022-08-19T09:31:18;51.60;;;33.03;;
12511;SDS011;6321;53.798;10.382;2022-08-19T09:33:46;47.70;;;32.27;;
12511;SDS011;6321;53.798;10.382;2022-08-19T09:36:13;49.13;;;32.90;;
12511;SDS011;6321;53.798;10.382;2022-08-19T09:38:40;51.73;;;31.80;;
12511;SDS011;6321;53.798;10.382;2022-08-19T09:41:08;56.20;;;34.47;;
12511;SDS011;6321;53.798;10.382;2022-08-19T09:43:37;53.37;;;35.63;;
12511;SDS011;6321;53.798;10.382;2022-08-19T09:46:03;54.40;;;35.47;;
12511;SDS011;6321;53.798;10.382;2022-08-19T09:48:34;51.20;;;33.23;;
12511;SDS011;6321;53.798;10.382;2022-08-19T09:51:02;50.87;;;33.60;;
12511;SDS011;6321;53.798;10.382;2022-08-19T09:53:30;50.87;;;34.27;;
12511;SDS011;6321;53.798;10.382;2022-08-19T09:55:57;52.23;;;34.27;;
12511;SDS011;6321;53.798;10.382;2022-08-19T09:58:23;49.93;;;33.13;;
12511;SDS011;6321;53.798;10.382;2022-08-19T10:00:53;52.83;;;35.23;;
12511;SDS011;6321;53.798;10.382;2022-08-19T10:03:19;48.63;;;32.57;;
12511;SDS011;6321;53.798;10.382;2022-08-19T10:05:45;47.70;;;33.03;;
12511;SDS011;6321;53.798;10.382;2022-08-19T10:08:22;47.77;;;32.77;;
12511;SDS011;6321;53.798;10.382;2022-08-19T10:10:51;48.33;;;33.03;;
12511;SDS011;6321;53.798;10.382;2022-08-19T10:13:18;47.10;;;34.60;;
12511;SDS011;6321;53.798;10.382;2022-08-19T10:15:49;44.70;;;31.17;;
12511;SDS011;6321;53.798;10.382;2022-08-19T10:18:16;44.33;;;31.20;;
12511;SDS011;6321;53.798;10.382;2022-08-19T10:20:43;46.23;;;32.23;;
12511;SDS011;6321;53.798;10.382;2022-08-19T10:23:10;42.67;;;31.57;;
12511;SDS011;6321;53.798;10.382;2022-08-19T10:25:37;42.33;;;31.87;;
12511;SDS011;6321;53.798;10.382;2022-08-19T10:28:03;38.30;;;31.30;;
12511;SDS011;6321;53.798;10.382;2022-08-19T10:30:29;40.93;;;32.43;;
12511;SDS011;6321;53.798;10.382;2022-08-19T10:32:55;42.27;;;32.00;;
12511;SDS011;6321;53.798;10.382;2022-08-19T10:35:21;43.50;;;33.37;;
12511;SDS011;6321;53.798;10.382;2022-08-19T10:37:47;40.13;;;31.27;;
12511;SDS011;6321;53.798;10.382;2022-08-19T10:40:13;45.53;;;33.20;;
12511;SDS011;6321;53.798;10.382;2022-08-19T10:42:39;43.23;;;34.00;;
12511;SDS011;6321;53.798;10.382;2022-08-19T10:45:05;42.07;;;34.67;;
12511;SDS011;6321;53.798;10.382;2022-08-19T10:47:32;45.73;;;33.80;;
12511;SDS011;6321;53.798;10.382;2022-08-19T10:49:58;43.73;;;33.07;;
12511;SDS011;6321;53.798;10.382;2022-08-19T10:52:44;45.17;;;34.57;;
12511;SDS011;6321;53.798;10.382;2022-08-19T10:55:11;43.07;;;32.87;;
12511;SDS011;6321;53.798;10.382;2022-08-19T10:57:55;38.97;;;31.77;;
12511;SDS011;6321;53.798;10.382;2022-08-19T11:00:22;43.90;;;33.07;;
12511;SDS011;6321;53.798;10.382;2022-08-19T11:02:49;41.63;;;29.50;;
12511;SDS011;6321;53.798;10.382;2022-08-19T11:05:17;42.10;;;31.40;;
12511;SDS011;6321;53.798;10.382;2022-08-19T11:07:44;45.77;;;31.03;;
12511;SDS011;6321;53.798;10.382;2022-08-19T11:10:11;41.03;;;31.40;;
12511;SDS011;6321;53.798;10.382;2022-08-19T11:12:39;38.80;;;30.30;;
12511;SDS011;6321;53.798;10.382;2022-08-19T11:15:09;40.80;;;30.73;;
12511;SDS011;6321;53.798;10.382;2022-08-19T11:17:39;39.50;;;30.37;;
12511;SDS011;6321;53.798;10.382;2022-08-19T11:20:09;39.13;;;30.07;;
12511;SDS011;6321;53.798;10.382;2022-08-19T11:22:39;40.20;;;29.27;;
12511;SDS011;6321;53.798;10.382;2022-08-19T11:25:05;42.70;;;32.67;;
12511;SDS011;6321;53.798;10.382;2022-08-19T11:27:32;45.40;;;32.43;;
12511;SDS011;6321;53.798;10.382;2022-08-19T11:29:58;38.10;;;30.90;;
12511;SDS011;6321;53.798;10.382;2022-08-19T11:32:25;41.53;;;30.73;;
12511;SDS011;6321;53.798;10.382;2022-08-19T11:34:52;38.13;;;29.27;;
12511;SDS011;6321;53.798;10.382;2022-08-19T11:37:18;39.83;;;30.87;;
12511;SDS011;6321;53.798;10.382;2022-08-19T11:39:43;35.03;;;29.20;;
12511;SDS011;6321;53.798;10.382;2022-08-19T11:42:10;36.03;;;28.60;;
12511;SDS011;6321;53.798;10.382;2022-08-19T11:44:55;38.83;;;30.13;;
12511;SDS011;6321;53.798;10.382;2022-08-19T11:47:21;37.70;;;29.77;;
12511;SDS011;6321;53.798;10.382;2022-08-19T11:49:47;37.57;;;30.70;;
12511;SDS011;6321;53.798;10.382;2022-08-19T11:52:13;41.23;;;29.83;;
12511;SDS011;6321;53.798;10.382;2022-08-19T11:54:39;35.93;;;30.33;;
12511;SDS011;6321;53.798;10.382;2022-08-19T11:57:05;36.73;;;28.63;;
12511;SDS011;6321;53.798;10.382;2022-08-19T11:59:31;34.80;;;29.40;;
12511;SDS011;6321;53.798;10.382;2022-08-19T12:01:56;38.27;;;29.00;;
12511;SDS011;6321;53.798;10.382;2022-08-19T12:04:24;35.47;;;28.83;;
12511;SDS011;6321;53.798;10.382;2022-08-19T12:06:49;35.93;;;29.20;;
12511;SDS011;6321;53.798;10.382;2022-08-19T12:09:15;37.17;;;30.20;;
12511;SDS011;6321;53.798;10.382;2022-08-19T12:11:43;36.40;;;30.20;;
12511;SDS011;6321;53.798;10.382;2022-08-19T12:14:10;37.40;;;29.50;;
12511;SDS011;6321;53.798;10.382;2022-08-19T12:16:36;34.20;;;29.00;;
12511;SDS011;6321;53.798;10.382;2022-08-19T12:19:03;37.30;;;29.87;;
12511;SDS011;6321;53.798;10.382;2022-08-19T12:21:31;34.50;;;27.33;;
12511;SDS011;6321;53.798;10.382;2022-08-19T12:23:59;34.93;;;28.23;;
12511;SDS011;6321;53.798;10.382;2022-08-19T12:26:27;33.97;;;26.70;;
12511;SDS011;6321;53.798;10.382;2022-08-19T12:28:54;37.57;;;26.83;;
12511;SDS011;6321;53.798;10.382;2022-08-19T12:31:20;28.73;;;25.67;;
12511;SDS011;6321;53.798;10.382;2022-08-19T12:33:46;30.90;;;26.03;;
12511;SDS011;6321;53.798;10.382;2022-08-19T12:36:14;32.63;;;27.87;;
12511;SDS011;6321;53.798;10.382;2022-08-19T12:38:41;33.83;;;28.43;;
12511;SDS011;6321;53.798;10.382;2022-08-19T12:41:10;33.07;;;27.00;;
12511;SDS011;6321;53.798;10.382;2022-08-19T12:43:37;30.60;;;26.80;;
12511;SDS011;6321;53.798;10.382;2022-08-19T12:46:04;29.10;;;25.43;;
12511;SDS011;6321;53.798;10.382;2022-08-19T12:48:31;30.77;;;27.10;;
12511;SDS011;6321;53.798;10.382;2022-08-19T12:50:58;29.43;;;26.47;;
12511;SDS011;6321;53.798;10.382;2022-08-19T12:53:25;30.20;;;26.93;;
12511;SDS011;6321;53.798;10.382;2022-08-19T12:55:55;28.33;;;25.40;;
12511;SDS011;6321;53.798;10.382;2022-08-19T12:58:22;33.47;;;26.97;;
12511;SDS011;6321;53.798;10.382;2022-08-19T13:00:48;29.13;;;26.03;;
12511;SDS011;6321;53.798;10.382;2022-08-19T13:03:14;29.33;;;26.10;;
12511;SDS011;6321;53.798;10.382;2022-08-19T13:05:40;28.50;;;24.47;;
12511;SDS011;6321;53.798;10.382;2022-08-19T13:08:07;29.73;;;26.00;;
12511;SDS011;6321;53.798;10.382;2022-08-19T13:10:34;29.67;;;25.40;;
12511;SDS011;6321;53.798;10.382;2022-08-19T13:13:02;28.27;;;24.17;;
12511;SDS011;6321;53.798;10.382;2022-08-19T13:15:32;28.97;;;25.83;;
12511;SDS011;6321;53.798;10.382;2022-08-19T13:18:00;28.80;;;24.57;;
12511;SDS011;6321;53.798;10.382;2022-08-19T13:20:26;25.30;;;21.83;;
12511;SDS011;6321;53.798;10.382;2022-08-19T13:22:52;24.90;;;22.27;;
12511;SDS011;6321;53.798;10.382;2022-08-19T13:25:19;26.27;;;23.20;;
12511;SDS011;6321;53.798;10.382;2022-08-19T13:27:46;24.63;;;22.13;;
12511;SDS011;6321;53.798;10.382;2022-08-19T13:30:13;24.60;;;21.40;;
12511;SDS011;6321;53.798;10.382;2022-08-19T13:32:59;24.53;;;21.90;;
12511;SDS011;6321;53.798;10.382;2022-08-19T13:35:37;23.60;;;21.03;;
12511;SDS011;6321;53.798;10.382;2022-08-19T13:38:04;25.10;;;21.83;;
12511;SDS011;6321;53.798;10.382;2022-08-19T13:40:31;27.60;;;22.60;;
12511;SDS011;6321;53.798;10.382;2022-08-19T13:43:00;24.93;;;21.83;;
12511;SDS011;6321;53.798;10.382;2022-08-19T13:45:28;23.27;;;20.87;;
12511;SDS011;6321;53.798;10.382;2022-08-19T13:47:58;24.87;;;22.27;;
12511;SDS011;6321;53.798;10.382;2022-08-19T13:50:28;24.90;;;22.30;;
12511;SDS011;6321;53.798;10.382;2022-08-19T13:52:56;24.50;;;21.90;;
12511;SDS011;6321;53.798;10.382;2022-08-19T13:55:23;24.33;;;21.70;;
12511;SDS011;6321;53.798;10.382;2022-08-19T13:57:52;23.23;;;20.93;;
12511;SDS011;6321;53.798;10.382;2022-08-19T14:00:19;21.67;;;19.63;;
12511;SDS011;6321;53.798;10.382;2022-08-19T14:02:47;23.13;;;20.73;;
12511;SDS011;6321;53.798;10.382;2022-08-19T14:05:17;21.43;;;19.20;;
12511;SDS011;6321;53.798;10.382;2022-08-19T14:07:44;24.63;;;17.77;;
12511;SDS011;6321;53.798;10.382;2022-08-19T14:10:11;20.00;;;17.87;;
12511;SDS011;6321;53.798;10.382;2022-08-19T14:12:37;22.63;;;20.23;;
12511;SDS011;6321;53.798;10.382;2022-08-19T14:15:04;21.50;;;19.00;;
12511;SDS011;6321;53.798;10.382;2022-08-19T14:17:31;21.30;;;18.07;;
12511;SDS011;6321;53.798;10.382;2022-08-19T14:20:00;20.00;;;17.87;;
12511;SDS011;6321;53.798;10.382;2022-08-19T14:22:29;22.37;;;20.03;;
12511;SDS011;6321;53.798;10.382;2022-08-19T14:24:56;20.60;;;18.53;;
12511;SDS011;6321;53.798;10.382;2022-08-19T14:27:22;20.23;;;18.13;;
12511;SDS011;6321;53.798;10.382;2022-08-19T14:29:49;20.50;;;18.50;;
12511;SDS011;6321;53.798;10.382;2022-08-19T14:32:16;21.10;;;18.80;;
12511;SDS011;6321;53.798;10.382;2022-08-19T14:34:43;21.53;;;19.30;;
12511;SDS011;6321;53.798;10.382;2022-08-19T14:37:11;20.20;;;18.27;;
12511;SDS011;6321;53.798;10.382;2022-08-19T14:39:39;19.87;;;17.83;;